Time;durP1;ratioP1;P1;durP2;ratioP2;P2;SDS_P1;SDS_P2;PMS_P1;PMS_P2;Temp;Humidity;BMP_temperature;BMP_pressure;BME280_temperature;BME280_humidity;BME280_pressure;Samples;Min_cycle;Max_cycle;Signal;HPM_P1;HPM_P2
2022/09/11 00:01:21;;;;;;;6.40;4.72;;;;;;;13.60;79.86;96755.09;1697439;83;27191;-87
2022/09/11 00:03:48;;;;;;;5.50;4.00;;;;;;;13.58;79.88;96753.69;1699085;83;25794;-87
2022/09/11 00:06:19;;;;;;;6.20;4.42;;;;;;;13.57;79.93;96750.69;1717853;81;25743;-87
2022/09/11 00:08:48;;;;;;;5.95;4.50;;;;;;;13.58;79.96;96746.37;1720248;81;26514;-86
2022/09/11 00:11:18;;;;;;;4.30;3.70;;;;;;;13.56;79.94;96747.69;1721576;81;25693;-85
2022/09/11 00:13:49;;;;;;;6.85;4.40;;;;;;;13.54;79.98;96745.75;1717990;81;28179;-88
2022/09/11 00:16:29;;;;;;;6.53;4.30;;;;;;;13.54;79.88;96743.04;1723295;81;25921;-87
2022/09/11 00:19:00;;;;;;;8.08;4.70;;;;;;;13.52;79.83;96746.02;1712857;82;25930;-84
2022/09/11 00:21:28;;;;;;;6.60;4.75;;;;;;;13.50;79.84;96732.41;1713889;82;25910;-87
2022/09/11 00:23:56;;;;;;;9.73;5.72;;;;;;;13.48;79.87;96734.55;1707313;81;25808;-88
2022/09/11 00:26:23;;;;;;;9.35;5.12;;;;;;;13.47;79.90;96731.55;1711346;82;27432;-85
2022/09/11 00:28:53;;;;;;;8.28;5.12;;;;;;;13.49;79.92;96737.55;1716057;82;25760;-88
2022/09/11 00:31:23;;;;;;;7.47;4.60;;;;;;;13.49;80.01;96734.30;1716560;81;26332;-88
2022/09/11 00:33:50;;;;;;;8.60;5.28;;;;;;;13.45;80.07;96731.78;1722477;81;25739;-88
2022/09/11 00:36:21;;;;;;;6.58;4.85;;;;;;;13.43;80.17;96728.49;1697523;81;25841;-86
2022/09/11 00:38:49;;;;;;;7.15;4.65;;;;;;;13.43;80.24;96729.85;1735389;81;27376;-84
2022/09/11 00:41:35;;;;;;;4.83;4.20;;;;;;;13.43;80.35;96726.31;1726227;80;25786;-86
2022/09/11 00:44:06;;;;;;;5.20;4.58;;;;;;;13.43;80.40;96718.19;1742072;81;25252;-84
2022/09/11 00:46:44;;;;;;;5.53;4.55;;;;;;;13.42;80.49;96721.95;1707654;83;36070;-87
2022/09/11 00:49:33;;;;;;;5.30;3.98;;;;;;;13.43;80.55;96724.43;1682033;82;26472;-87
2022/09/11 00:52:17;;;;;;;5.20;4.08;;;;;;;13.44;80.54;96720.66;1725327;81;26854;-84
2022/09/11 00:54:51;;;;;;;7.75;5.08;;;;;;;13.40;80.62;96723.59;1738087;82;25830;-83
2022/09/11 00:57:22;;;;;;;6.87;4.17;;;;;;;13.38;80.82;96718.11;1732060;81;25682;-88
2022/09/11 00:59:54;;;;;;;5.90;4.30;;;;;;;13.39;80.88;96722.47;1728182;81;25752;-83
2022/09/11 01:02:23;;;;;;;6.42;4.33;;;;;;;13.41;80.88;96723.84;1737348;81;25663;-86
2022/09/11 01:04:49;;;;;;;6.53;4.33;;;;;;;13.45;80.89;96721.47;1741157;80;27224;-85
2022/09/11 01:07:17;;;;;;;4.97;4.47;;;;;;;13.48;80.93;96723.70;1741207;82;25684;-88
2022/09/11 01:09:44;;;;;;;7.53;4.90;;;;;;;13.53;80.88;96721.05;1726304;82;25880;-84
2022/09/11 01:12:15;;;;;;;4.72;3.70;;;;;;;13.53;80.87;96721.05;1718387;82;25791;-87
2022/09/11 01:14:56;;;;;;;5.78;3.90;;;;;;;13.53;80.91;96722.41;1736120;82;25693;-89
2022/09/11 01:17:55;;;;;;;6.92;4.00;;;;;;;13.55;80.97;96725.70;1697790;82;27387;-84
2022/09/11 01:20:51;;;;;;;6.47;4.15;;;;;;;13.55;80.93;96723.81;1711703;82;25939;-85
2022/09/11 01:23:28;;;;;;;6.40;3.98;;;;;;;13.56;80.95;96713.80;1711678;82;26332;-85
2022/09/11 01:26:37;;;;;;;5.17;4.25;;;;;;;13.56;80.99;96714.62;1710747;82;25748;-87
2022/09/11 01:29:21;;;;;;;5.83;4.55;;;;;;;13.58;80.89;96704.34;1726896;82;25723;-84
2022/09/11 01:32:05;;;;;;;6.15;4.70;;;;;;;13.54;80.71;96705.08;1683905;83;27369;-87
2022/09/11 01:34:46;;;;;;;7.30;5.50;;;;;;;13.52;80.68;96707.24;1734525;82;25755;-85
2022/09/11 01:37:22;;;;;;;7.03;5.58;;;;;;;13.48;80.59;96702.84;1702499;83;25779;-86
2022/09/11 01:39:54;;;;;;;6.72;4.95;;;;;;;13.36;80.59;96703.45;1727812;81;26316;-87
2022/09/11 01:42:23;;;;;;;8.55;4.40;;;;;;;13.32;80.75;96696.33;1743028;82;25884;-86
2022/09/11 01:44:54;;;;;;;9.25;4.72;;;;;;;13.33;80.85;96703.40;1743453;82;28174;-87
2022/09/11 01:47:21;;;;;;;6.87;4.90;;;;;;;13.36;80.80;96698.56;1741421;81;26403;-88
2022/09/11 01:49:54;;;;;;;8.93;4.90;;;;;;;13.32;80.70;96692.27;1743720;82;26164;-85
2022/09/11 01:52:27;;;;;;;7.30;4.97;;;;;;;13.28;80.77;96700.59;1700979;82;26627;-85
2022/09/11 01:55:01;;;;;;;10.60;5.22;;;;;;;13.32;80.89;96700.94;1741631;82;26029;-85
2022/09/11 01:57:38;;;;;;;6.58;4.78;;;;;;;13.32;80.84;96697.69;1740714;82;27773;-86
2022/09/11 02:00:10;;;;;;;6.62;4.58;;;;;;;13.28;80.80;96701.95;1698738;82;25782;-85
2022/09/11 02:02:45;;;;;;;7.17;4.63;;;;;;;13.23;80.83;96701.05;1722207;82;25217;-90
2022/09/11 02:05:35;;;;;;;5.47;4.30;;;;;;;13.22;81.01;96693.45;1739963;81;25860;-89
2022/09/11 02:08:11;;;;;;;6.10;4.78;;;;;;;13.23;81.06;96700.52;1716187;82;25674;-89
2022/09/11 02:10:44;;;;;;;6.25;4.95;;;;;;;13.18;81.12;96700.95;1681847;82;28313;-89
2022/09/11 02:13:33;;;;;;;5.95;4.62;;;;;;;13.19;81.31;96698.00;1682937;82;25316;-90
2022/09/11 02:16:21;;;;;;;5.75;4.65;;;;;;;13.19;81.30;96705.31;1724675;82;25677;-90
2022/09/11 02:18:59;;;;;;;8.45;4.80;;;;;;;13.20;81.42;96700.19;1746188;81;25774;-83
2022/09/11 02:21:26;;;;;;;5.70;4.45;;;;;;;13.18;81.50;96698.24;1697725;82;26413;-86
2022/09/11 02:23:54;;;;;;;6.62;4.60;;;;;;;13.20;81.59;96699.65;1735620;82;27365;-84
2022/09/11 02:26:24;;;;;;;8.53;4.80;;;;;;;13.20;81.59;96702.36;1731330;82;25529;-87
2022/09/11 02:28:52;;;;;;;10.78;5.10;;;;;;;13.17;81.57;96708.80;1737789;81;26386;-86
2022/09/11 02:31:18;;;;;;;7.22;5.10;;;;;;;13.22;81.71;96707.01;1727352;82;26508;-85
2022/09/11 02:33:46;;;;;;;7.47;4.97;;;;;;;13.25;81.64;96703.81;1738505;82;25722;-90
2022/09/11 02:36:48;;;;;;;7.42;5.12;;;;;;;13.26;81.61;96700.05;1738361;81;27319;-84
2022/09/11 02:39:40;;;;;;;5.33;4.22;;;;;;;13.23;81.55;96703.23;1733432;82;25654;-89
2022/09/11 02:42:31;;;;;;;4.72;4.30;;;;;;;13.23;81.73;96696.45;1737955;81;32511;-86
2022/09/11 02:45:24;;;;;;;5.50;4.62;;;;;;;13.23;81.81;96699.17;1738144;82;26536;-85
2022/09/11 02:48:19;;;;;;;5.58;4.12;;;;;;;13.28;81.82;96701.16;1720955;82;25987;-88
2022/09/11 02:51:00;;;;;;;10.72;4.67;;;;;;;13.22;81.86;96704.30;1690915;82;27338;-88
2022/09/11 02:53:47;;;;;;;5.10;4.60;;;;;;;13.24;81.97;96699.46;1738384;81;25856;-87
2022/09/11 02:56:49;;;;;;;5.47;4.70;;;;;;;13.25;82.06;96701.11;1745987;81;26348;-87
2022/09/11 02:59:27;;;;;;;5.10;4.60;;;;;;;13.28;82.11;96700.59;1725616;82;25826;-87
2022/09/11 03:01:58;;;;;;;6.70;4.72;;;;;;;13.28;82.11;96701.95;1703633;82;25773;-84
2022/09/11 03:04:25;;;;;;;4.75;4.25;;;;;;;13.27;82.19;96696.27;1743451;81;28100;-84
2022/09/11 03:06:53;;;;;;;6.20;3.87;;;;;;;13.29;82.23;96688.69;1730074;82;26241;-86
2022/09/11 03:09:20;;;;;;;5.80;4.72;;;;;;;13.29;82.27;96691.93;1697928;81;25920;-85
2022/09/11 03:11:47;;;;;;;7.87;4.53;;;;;;;13.29;82.26;96690.04;1712010;81;26431;-87
2022/09/11 03:14:14;;;;;;;7.40;4.65;;;;;;;13.30;82.36;96688.97;1731472;82;25766;-84
2022/09/11 03:16:40;;;;;;;7.17;4.58;;;;;;;13.28;82.39;96685.69;1726117;81;27423;-86
2022/09/11 03:19:07;;;;;;;6.60;3.85;;;;;;;13.31;82.47;96687.91;1723794;81;25751;-88
2022/09/11 03:21:34;;;;;;;4.40;4.00;;;;;;;13.34;82.37;96686.61;1716491;83;25753;-86
2022/09/11 03:24:02;;;;;;;5.75;3.77;;;;;;;13.36;82.43;96687.72;1746547;81;26178;-84
2022/09/11 03:26:30;;;;;;;5.42;4.00;;;;;;;13.37;82.44;96695.61;1746421;81;26044;-87
2022/09/11 03:28:57;;;;;;;7.78;3.77;;;;;;;13.36;82.53;96692.61;1730821;82;27372;-88
2022/09/11 03:31:23;;;;;;;7.35;3.65;;;;;;;13.36;82.57;96694.49;1739483;81;25918;-84
2022/09/11 03:33:50;;;;;;;3.52;3.22;;;;;;;13.34;82.69;96691.49;1746623;81;25745;-86
2022/09/11 03:36:19;;;;;;;5.80;3.45;;;;;;;13.31;82.75;96701.47;1725315;81;26481;-88
2022/09/11 03:38:46;;;;;;;4.60;3.35;;;;;;;13.32;82.78;96701.75;1729672;82;26524;-84
2022/09/11 03:41:14;;;;;;;3.50;2.85;;;;;;;13.34;82.82;96702.34;1734429;81;27426;-84
2022/09/11 03:43:41;;;;;;;5.92;3.42;;;;;;;13.37;82.81;96694.78;1738331;81;25887;-87
2022/09/11 03:46:07;;;;;;;5.62;2.87;;;;;;;13.37;82.77;96697.50;1733040;81;25674;-88
2022/09/11 03:48:34;;;;;;;7.10;3.62;;;;;;;13.39;82.79;96696.19;1745839;81;26383;-83
2022/09/11 03:51:04;;;;;;;3.80;3.40;;;;;;;13.42;82.81;96701.09;1714508;83;25946;-86
2022/09/11 03:53:31;;;;;;;3.60;2.83;;;;;;;13.45;82.74;96697.08;1731261;82;27379;-84
2022/09/11 03:55:59;;;;;;;4.37;3.30;;;;;;;13.45;82.67;96694.36;1712344;83;26092;-89
2022/09/11 03:58:26;;;;;;;6.08;3.08;;;;;;;13.44;82.72;96696.78;1746247;81;25785;-83
2022/09/11 04:00:52;;;;;;;3.35;3.05;;;;;;;13.42;82.78;96697.56;1736224;81;25897;-84
2022/09/11 04:03:19;;;;;;;6.22;2.87;;;;;;;13.38;82.84;96700.50;1734392;81;25793;-84
2022/09/11 04:06:00;;;;;;;5.75;3.20;;;;;;;13.37;82.84;96700.20;1717177;81;27346;-86
2022/09/11 04:08:27;;;;;;;4.75;3.33;;;;;;;13.40;82.85;96698.37;1746954;81;25905;-89
2022/09/11 04:11:01;;;;;;;4.72;3.05;;;;;;;13.42;82.91;96698.38;1705332;81;26444;-88
2022/09/11 04:13:31;;;;;;;6.03;2.83;;;;;;;13.44;82.97;96702.20;1748516;81;25790;-90
2022/09/11 04:16:09;;;;;;;2.72;2.52;;;;;;;13.47;83.01;96697.12;1747268;81;26060;-87
2022/09/11 04:18:38;;;;;;;3.47;2.72;;;;;;;13.50;82.95;96697.17;1730801;81;27415;-85
2022/09/11 04:21:07;;;;;;;3.75;3.35;;;;;;;13.50;82.98;96700.70;1718508;83;25830;-87
2022/09/11 04:23:34;;;;;;;4.95;2.95;;;;;;;13.48;82.96;96701.48;1748750;81;25814;-90
2022/09/11 04:26:01;;;;;;;3.40;2.42;;;;;;;13.48;83.02;96696.59;1747474;81;25733;-88
2022/09/11 04:28:30;;;;;;;6.47;3.08;;;;;;;13.48;83.12;96694.70;1748950;81;26459;-86
2022/09/11 04:31:02;;;;;;;7.28;3.10;;;;;;;13.48;83.09;96686.56;1743317;82;27617;-84
2022/09/11 04:33:29;;;;;;;3.30;2.65;;;;;;;13.52;83.12;96697.75;1702035;82;25781;-85
2022/09/11 04:35:56;;;;;;;5.85;4.40;;;;;;;13.54;83.10;96695.59;1716713;82;25813;-87
2022/09/11 04:38:23;;;;;;;6.22;3.20;;;;;;;13.53;83.23;96695.30;1737480;82;26492;-85
2022/09/11 04:40:52;;;;;;;3.95;3.22;;;;;;;13.49;83.09;96688.75;1726972;82;25769;-85
2022/09/11 04:43:18;;;;;;;3.60;3.17;;;;;;;13.49;83.11;96691.45;1737865;81;27375;-85
2022/09/11 04:45:45;;;;;;;5.03;3.10;;;;;;;13.50;83.17;96689.86;1743238;82;25789;-85
2022/09/11 04:48:12;;;;;;;5.17;3.15;;;;;;;13.50;83.18;96689.86;1735507;81;25794;-89
2022/09/11 04:50:40;;;;;;;5.72;3.10;;;;;;;13.54;83.25;96695.59;1681839;82;26286;-88
2022/09/11 04:53:06;;;;;;;3.12;2.83;;;;;;;13.55;83.19;96690.45;1719919;81;26037;-85
2022/09/11 04:55:33;;;;;;;4.47;3.40;;;;;;;13.56;83.23;96702.41;1743355;82;27356;-86
2022/09/11 04:58:00;;;;;;;7.87;5.10;;;;;;;13.56;83.21;96690.75;1725110;82;25793;-86
2022/09/11 05:00:27;;;;;;;13.15;9.68;;;;;;;13.58;83.21;96704.88;1712126;82;25567;-88
2022/09/11 05:02:54;;;;;;;18.23;13.40;;;;;;;13.57;83.20;96697.81;1711694;82;25988;-86
2022/09/11 05:05:20;;;;;;;16.00;11.45;;;;;;;13.56;83.26;96693.45;1714135;81;25759;-84
2022/09/11 05:07:50;;;;;;;15.38;10.00;;;;;;;13.55;83.27;96702.13;1722266;82;27403;-86
2022/09/11 05:10:16;;;;;;;13.43;8.98;;;;;;;13.53;83.25;96697.48;1688687;82;25830;-88
2022/09/11 05:12:43;;;;;;;11.78;8.20;;;;;;;13.57;83.32;96699.99;1722253;82;25280;-87
2022/09/11 05:15:10;;;;;;;11.63;7.25;;;;;;;13.52;83.27;96695.86;1708113;83;25672;-87
2022/09/11 05:17:38;;;;;;;8.05;6.20;;;;;;;13.53;83.33;96692.59;1727366;82;25681;-85
2022/09/11 05:20:05;;;;;;;8.23;4.62;;;;;;;13.52;83.38;96692.33;1705143;83;27539;-86
2022/09/11 05:22:32;;;;;;;7.80;4.95;;;;;;;13.49;83.48;96697.70;1722751;83;25746;-85
2022/09/11 05:25:00;;;;;;;6.47;4.35;;;;;;;13.51;83.56;96699.64;1700926;83;25775;-87
2022/09/11 05:27:27;;;;;;;3.58;3.27;;;;;;;13.57;83.69;96704.59;1680764;83;25852;-89
2022/09/11 05:29:54;;;;;;;5.58;4.35;;;;;;;13.53;83.57;96705.61;1712514;83;25677;-88
2022/09/11 05:32:20;;;;;;;6.83;5.10;;;;;;;13.52;83.45;96701.82;1725148;83;27397;-88
2022/09/11 05:34:47;;;;;;;6.25;5.10;;;;;;;13.53;83.55;96701.55;1727493;83;26386;-89
2022/09/11 05:37:14;;;;;;;7.10;5.22;;;;;;;13.56;83.57;96700.23;1699192;83;25773;-86
2022/09/11 05:39:41;;;;;;;6.10;2.87;;;;;;;13.57;83.62;96704.06;1700544;84;26400;-88
2022/09/11 05:42:08;;;;;;;4.62;3.47;;;;;;;13.56;83.21;96705.12;1695484;84;25332;-87
2022/09/11 05:44:36;;;;;;;6.75;3.33;;;;;;;13.57;83.26;96710.84;1706652;83;27354;-85
2022/09/11 05:47:03;;;;;;;4.97;3.50;;;;;;;13.58;83.32;96704.88;1680981;84;25770;-86
2022/09/11 05:49:30;;;;;;;4.30;3.77;;;;;;;13.56;83.39;96701.59;1700368;83;25729;-86
2022/09/11 05:51:56;;;;;;;8.83;5.60;;;;;;;13.55;83.47;96702.13;1723559;83;25690;-86
2022/09/11 05:54:23;;;;;;;5.85;4.90;;;;;;;13.57;83.59;96704.59;1709425;83;25762;-87
2022/09/11 05:56:50;;;;;;;6.47;4.05;;;;;;;13.57;83.76;96700.52;1679118;83;27418;-86
2022/09/11 05:59:18;;;;;;;5.40;4.25;;;;;;;13.57;83.86;96703.23;1696743;83;26422;-85
2022/09/11 06:01:46;;;;;;;6.42;4.90;;;;;;;13.59;83.85;96699.75;1671605;84;25765;-85
2022/09/11 06:04:13;;;;;;;5.80;5.12;;;;;;;13.62;83.88;96700.62;1671466;84;25762;-85
2022/09/11 06:06:40;;;;;;;6.15;5.20;;;;;;;13.63;83.88;96700.91;1694988;80;25761;-86
2022/09/11 06:09:07;;;;;;;7.22;5.33;;;;;;;13.65;83.92;96697.39;1686429;83;28377;-89
2022/09/11 06:11:34;;;;;;;5.50;4.65;;;;;;;13.69;83.92;96706.68;1688385;84;25702;-84
2022/09/11 06:14:00;;;;;;;4.58;4.17;;;;;;;13.71;83.96;96708.62;1716044;83;25567;-89
2022/09/11 06:16:30;;;;;;;4.83;4.05;;;;;;;13.68;83.99;96702.33;1724512;83;25806;-87
2022/09/11 06:18:56;;;;;;;5.85;3.98;;;;;;;13.65;83.92;96700.09;1683758;84;25703;-87
2022/09/11 06:21:25;;;;;;;6.10;3.60;;;;;;;13.68;83.87;96705.03;1691733;84;28096;-88
2022/09/11 06:23:53;;;;;;;4.33;3.67;;;;;;;13.71;83.91;96705.91;1655223;85;25960;-87
2022/09/11 06:26:23;;;;;;;5.40;4.00;;;;;;;13.71;83.91;96705.91;1683033;84;25694;-87
2022/09/11 06:28:52;;;;;;;7.20;4.75;;;;;;;13.73;83.95;96706.48;1672886;84;25765;-85
2022/09/11 06:31:24;;;;;;;6.25;4.70;;;;;;;13.75;83.99;96704.34;1710862;83;25253;-90
2022/09/11 06:33:51;;;;;;;5.00;4.15;;;;;;;13.76;83.98;96702.46;1702942;83;28401;-84
2022/09/11 06:36:22;;;;;;;4.53;4.12;;;;;;;13.77;83.93;96699.47;1698124;82;25811;-85
2022/09/11 06:38:53;;;;;;;6.62;4.45;;;;;;;13.79;83.92;96697.34;1714191;83;25844;-87
2022/09/11 06:41:21;;;;;;;6.83;5.10;;;;;;;13.82;83.91;96700.91;1699514;83;25766;-88
2022/09/11 06:43:48;;;;;;;6.33;4.47;;;;;;;13.87;84.03;96697.47;1696337;84;25671;-86
2022/09/11 06:46:18;;;;;;;3.85;3.20;;;;;;;13.92;84.04;96700.23;1711167;83;28013;-89
2022/09/11 06:48:48;;;;;;;4.37;3.25;;;;;;;13.92;83.96;96699.70;1717860;83;25699;-88
2022/09/11 06:51:20;;;;;;;5.72;2.90;;;;;;;13.95;83.80;96707.35;1716974;83;26329;-85
2022/09/11 06:53:47;;;;;;;4.47;3.00;;;;;;;13.96;83.64;96710.36;1715946;83;32576;-86
2022/09/11 06:56:17;;;;;;;4.33;3.27;;;;;;;13.98;83.62;96708.22;1704511;83;25748;-86
2022/09/11 06:58:45;;;;;;;3.80;3.00;;;;;;;14.00;83.71;96710.69;1695879;83;27427;-86
2022/09/11 07:01:15;;;;;;;3.00;2.70;;;;;;;14.01;83.68;96712.30;1696045;83;25843;-90
2022/09/11 07:03:50;;;;;;;6.70;4.70;;;;;;;14.00;83.66;96721.00;1706849;82;25796;-86
2022/09/11 07:06:21;;;;;;;5.50;4.25;;;;;;;13.94;83.67;96719.27;1707632;82;25782;-89
2022/09/11 07:08:54;;;;;;;8.73;5.22;;;;;;;13.89;83.70;96713.76;1741234;81;25711;-86
2022/09/11 07:11:21;;;;;;;8.38;5.50;;;;;;;13.87;83.76;96714.56;1727464;81;27402;-89
2022/09/11 07:13:48;;;;;;;5.17;3.80;;;;;;;13.85;83.80;96713.17;1737978;82;25805;-90
2022/09/11 07:16:15;;;;;;;4.60;3.77;;;;;;;13.85;83.87;96713.99;1721636;81;25252;-84
2022/09/11 07:18:45;;;;;;;4.50;3.33;;;;;;;13.82;83.73;96710.41;1716158;83;25678;-86
2022/09/11 07:21:21;;;;;;;6.42;3.70;;;;;;;13.86;83.81;96710.74;1718542;81;25884;-87
2022/09/11 07:23:53;;;;;;;6.92;3.20;;;;;;;13.85;83.78;96715.34;1718786;81;27363;-84
2022/09/11 07:26:22;;;;;;;3.50;3.20;;;;;;;13.87;83.74;96717.28;1718578;81;33206;-86
2022/09/11 07:28:51;;;;;;;4.87;3.10;;;;;;;13.91;83.71;96712.16;1711802;82;25769;-85
2022/09/11 07:31:23;;;;;;;7.35;3.67;;;;;;;13.92;83.59;96711.09;1720576;82;25641;-87
2022/09/11 07:33:51;;;;;;;4.22;3.05;;;;;;;13.91;83.67;96708.91;1713531;82;25810;-88
2022/09/11 07:36:26;;;;;;;4.10;3.65;;;;;;;13.96;83.75;96714.95;1738505;82;27430;-85
2022/09/11 07:38:56;;;;;;;4.87;3.65;;;;;;;14.01;83.67;96718.55;1730034;81;26504;-90
2022/09/11 07:41:25;;;;;;;3.95;3.60;;;;;;;14.04;83.65;96712.62;1711062;82;26076;-88
2022/09/11 07:44:02;;;;;;;3.83;3.42;;;;;;;14.07;83.71;96716.74;1714180;82;26306;-85
2022/09/11 07:46:29;;;;;;;4.22;3.50;;;;;;;14.09;83.67;96715.14;1708841;82;25739;-86
2022/09/11 07:48:56;;;;;;;4.08;3.17;;;;;;;14.13;83.57;96716.30;1715908;82;27515;-86
2022/09/11 07:51:25;;;;;;;3.70;3.30;;;;;;;14.17;83.50;96716.05;1712805;82;25786;-88
2022/09/11 07:53:53;;;;;;;4.10;3.40;;;;;;;14.22;83.53;96713.42;1712356;82;25688;-87
2022/09/11 07:56:23;;;;;;;4.55;3.20;;;;;;;14.22;83.54;96713.42;1713307;82;25745;-87
2022/09/11 07:58:53;;;;;;;4.62;3.37;;;;;;;14.27;83.62;96717.02;1730945;82;25719;-88
2022/09/11 08:01:28;;;;;;;5.33;3.58;;;;;;;14.32;83.59;96708.13;1734036;82;27359;-87
2022/09/11 08:03:59;;;;;;;4.28;3.50;;;;;;;14.37;83.64;96705.45;1721250;81;25970;-89
2022/09/11 08:06:30;;;;;;;3.77;3.47;;;;;;;14.41;83.70;96713.42;1728193;82;25765;-88
2022/09/11 08:09:01;;;;;;;5.00;3.98;;;;;;;14.42;83.74;96712.36;1723677;82;25757;-89
2022/09/11 08:11:30;;;;;;;4.62;3.10;;;;;;;14.46;83.79;96716.22;1690907;83;25728;-85
2022/09/11 08:13:57;;;;;;;4.10;3.30;;;;;;;14.51;83.79;96718.98;1732042;82;27438;-89
2022/09/11 08:16:27;;;;;;;6.05;3.60;;;;;;;14.55;83.88;96718.77;1712007;83;25240;-88
2022/09/11 08:18:54;;;;;;;4.58;3.83;;;;;;;14.61;84.03;96719.09;1741447;82;25863;-87
2022/09/11 08:21:23;;;;;;;4.95;4.30;;;;;;;14.66;84.02;96716.45;1738749;82;26519;-86
2022/09/11 08:23:50;;;;;;;5.10;4.60;;;;;;;14.72;84.08;96717.34;1716107;82;25977;-85
2022/09/11 08:26:27;;;;;;;4.83;4.30;;;;;;;14.76;84.02;96714.39;1714247;82;27541;-87
2022/09/11 08:28:58;;;;;;;5.72;4.55;;;;;;;14.81;83.96;96712.27;1733514;82;25786;-88
2022/09/11 08:31:27;;;;;;;5.03;3.67;;;;;;;14.87;84.12;96713.95;1687922;82;25817;-90
2022/09/11 08:33:54;;;;;;;4.17;3.40;;;;;;;14.94;83.85;96715.42;1724259;82;26480;-87
2022/09/11 08:36:23;;;;;;;3.72;3.30;;;;;;;15.00;83.48;96713.55;1741882;82;25778;-95
2022/09/11 08:38:51;;;;;;;5.30;3.12;;;;;;;15.06;83.16;96716.63;1717429;81;27393;-91
2022/09/11 08:41:55;;;;;;;4.35;3.92;;;;;;;15.14;83.04;96718.88;1720646;82;25278;-96
2022/09/11 08:44:43;;;;;;;5.87;4.00;;;;;;;15.21;82.72;96716.78;1724736;81;25218;-88
2022/09/11 08:47:21;;;;;;;3.70;3.40;;;;;;;15.30;82.67;96713.88;1711544;82;25501;-82
2022/09/11 08:50:08;;;;;;;3.20;2.90;;;;;;;15.37;82.32;96721.27;1721174;81;25267;-93
2022/09/11 08:52:36;;;;;;;3.12;2.80;;;;;;;15.37;81.88;96710.39;1718937;82;28199;-93
2022/09/11 08:55:05;;;;;;;5.35;3.08;;;;;;;15.34;81.56;96712.26;1711097;81;25798;-96
2022/09/11 08:58:19;;;;;;;4.30;3.30;;;;;;;15.32;81.38;96714.98;1683620;83;25767;-87
2022/09/11 09:01:13;;;;;;;3.87;2.92;;;;;;;15.30;81.29;96719.31;1650094;85;26986;-87
2022/09/11 09:04:15;;;;;;;4.75;3.10;;;;;;;15.25;81.08;96719.25;1633407;85;25811;-93
2022/09/11 09:06:59;;;;;;;4.28;3.80;;;;;;;15.22;81.17;96725.73;1694445;83;27401;-95
2022/09/11 09:09:55;;;;;;;5.28;3.75;;;;;;;15.19;81.37;96723.55;1696746;83;25837;-90
2022/09/11 09:12:43;;;;;;;6.20;4.50;;;;;;;15.13;81.64;96726.20;1696330;83;25854;-89
2022/09/11 09:15:49;;;;;;;7.25;5.17;;;;;;;15.16;81.84;96723.52;1693395;83;26475;-89
2022/09/11 09:18:33;;;;;;;5.25;3.70;;;;;;;15.18;82.03;96732.24;1698490;83;26080;-88
2022/09/11 09:21:14;;;;;;;3.62;3.33;;;;;;;15.23;82.06;96720.05;1693072;83;27449;-89
2022/09/11 09:23:56;;;;;;;3.77;3.47;;;;;;;15.34;81.99;96723.67;1682628;83;25950;-89
2022/09/11 09:26:29;;;;;;;;;;;;;;;15.54;82.23;96719.80;1658619;84;25988;-89
2022/09/11 09:28:58;;;;;;;4.08;3.55;;;;;;;15.72;82.15;96725.39;1649681;84;25855;-87
2022/09/11 09:31:32;;;;;;;3.90;3.22;;;;;;;15.84;82.00;96721.41;1670256;83;25846;-84
2022/09/11 09:34:07;;;;;;;;;;;;;;;15.92;81.66;96717.41;1668842;84;28417;-90
2022/09/11 09:37:07;;;;;;;4.97;3.25;;;;;;;15.98;81.59;96718.23;1705961;82;25857;-86
2022/09/11 09:39:36;;;;;;;3.20;2.65;;;;;;;16.01;81.31;96720.44;1722158;82;25781;-83
2022/09/11 09:42:18;;;;;;;3.90;3.35;;;;;;;16.05;81.22;96716.13;1734736;82;25760;-88
2022/09/11 09:45:15;;;;;;;3.10;2.80;;;;;;;16.06;81.01;96719.12;1721853;82;25756;-89
2022/09/11 09:47:46;;;;;;;3.02;2.83;;;;;;;16.04;80.74;96723.47;1719996;82;27500;-88
2022/09/11 09:50:21;;;;;;;3.00;2.70;;;;;;;15.94;80.44;96720.66;1726936;82;25864;-89
2022/09/11 09:52:49;;;;;;;2.77;2.58;;;;;;;15.82;80.49;96720.02;1725678;82;25804;-88
2022/09/11 09:55:18;;;;;;;3.12;2.80;;;;;;;15.63;80.49;96720.98;1704863;82;26516;-85
2022/09/11 09:57:47;;;;;;;2.45;2.25;;;;;;;15.49;80.54;96721.09;1733164;82;25801;-87
2022/09/11 10:00:22;;;;;;;3.08;2.40;;;;;;;15.40;80.73;96728.91;1731196;82;27409;-86
2022/09/11 10:02:53;;;;;;;3.77;2.77;;;;;;;15.41;80.89;96727.84;1723995;82;26168;-87
2022/09/11 10:05:38;;;;;;;3.72;2.70;;;;;;;15.50;81.14;96730.90;1709316;82;25740;-87
2022/09/11 10:08:09;;;;;;;6.15;3.30;;;;;;;15.57;81.17;96726.66;1710802;82;25861;-86
2022/09/11 10:10:39;;;;;;;3.40;2.80;;;;;;;15.64;81.47;96728.06;1690471;82;25715;-88
2022/09/11 10:13:21;;;;;;;3.22;2.90;;;;;;;15.72;81.61;96727.58;1705979;82;28178;-86
2022/09/11 10:15:48;;;;;;;3.70;2.87;;;;;;;15.77;81.48;96725.45;1707066;82;25777;-92
2022/09/11 10:18:41;;;;;;;3.58;3.27;;;;;;;15.81;81.34;96732.02;1704208;81;25754;-91
2022/09/11 10:21:18;;;;;;;2.83;2.60;;;;;;;15.84;81.17;96728.75;1713875;82;26881;-87
2022/09/11 10:24:01;;;;;;;3.08;2.35;;;;;;;15.86;81.01;96732.03;1716792;83;25896;-90
2022/09/11 10:26:39;;;;;;;2.85;2.65;;;;;;;15.85;80.83;96733.12;1736185;82;28241;-93
2022/09/11 10:29:17;;;;;;;3.12;2.83;;;;;;;15.82;80.74;96729.55;1735869;82;25807;-93
2022/09/11 10:31:54;;;;;;;4.47;2.70;;;;;;;15.80;80.76;96723.57;1717827;82;25777;-86
2022/09/11 10:34:23;;;;;;;3.10;2.85;;;;;;;15.88;80.77;96731.78;1706766;82;25732;-94
2022/09/11 10:37:10;;;;;;;3.80;3.50;;;;;;;15.93;80.76;96738.09;1690161;82;25855;-85
2022/09/11 10:39:39;;;;;;;3.17;2.80;;;;;;;15.93;80.69;96736.73;1730356;81;27481;-91
2022/09/11 10:42:24;;;;;;;3.10;2.80;;;;;;;15.94;80.64;96734.84;1709462;82;25285;-93
2022/09/11 10:44:53;;;;;;;3.20;2.80;;;;;;;15.92;80.68;96737.81;1706164;82;25813;-90
2022/09/11 10:47:24;;;;;;;3.72;2.80;;;;;;;15.88;80.74;96737.22;1707663;82;25677;-92
2022/09/11 10:50:19;;;;;;;3.05;2.70;;;;;;;15.91;80.77;96737.53;1685416;83;25809;-91
2022/09/11 10:53:04;;;;;;;3.10;2.80;;;;;;;15.95;80.73;96737.80;1727724;82;27339;-86
2022/09/11 10:55:39;;;;;;;3.10;2.85;;;;;;;15.96;80.70;96730.74;1710798;83;25762;-96
2022/09/11 10:58:13;;;;;;;4.12;3.12;;;;;;;15.99;80.63;96732.95;1720832;82;25393;-90
2022/09/11 11:00:39;;;;;;;2.95;2.65;;;;;;;16.01;80.48;96730.79;1714675;82;25941;-95
2022/09/11 11:03:21;;;;;;;3.40;2.87;;;;;;;16.06;80.59;96732.17;1718576;82;25787;-94
2022/09/11 11:06:08;;;;;;;3.98;2.90;;;;;;;16.14;80.70;96731.70;1718139;83;28211;-85
2022/09/11 11:09:09;;;;;;;2.92;2.60;;;;;;;16.29;80.81;96732.88;1720674;83;26096;-86
2022/09/11 11:12:02;;;;;;;3.17;2.98;;;;;;;16.37;80.25;96740.54;1675338;82;25573;-93
2022/09/11 11:14:47;;;;;;;2.65;2.50;;;;;;;16.39;79.97;96741.09;1719753;82;25927;-89
2022/09/11 11:17:39;;;;;;;3.30;3.00;;;;;;;16.33;79.69;96732.61;1718275;83;25701;-92
2022/09/11 11:20:45;;;;;;;3.15;2.95;;;;;;;16.25;79.51;96735.30;1703506;82;28126;-91
2022/09/11 11:23:32;;;;;;;4.22;3.22;;;;;;;16.19;79.42;96735.80;1725857;82;25729;-91
2022/09/11 11:26:57;;;;;;;3.85;2.92;;;;;;;16.14;79.47;96741.23;1701718;81;25778;-91
2022/09/11 11:29:41;;;;;;;3.80;3.50;;;;;;;16.15;79.53;96746.95;1724671;82;25994;-90
2022/09/11 11:32:22;;;;;;;4.42;3.45;;;;;;;16.19;79.45;96737.16;1687637;83;25766;-82
2022/09/11 11:35:13;;;;;;;4.85;3.77;;;;;;;16.23;79.65;96740.18;1741683;82;26806;-81
2022/09/11 11:37:42;;;;;;;3.70;3.40;;;;;;;16.27;79.72;96734.50;1714615;83;25889;-85
2022/09/11 11:40:26;;;;;;;5.87;3.47;;;;;;;16.34;79.66;96738.33;1735776;81;25807;-84
2022/09/11 11:43:16;;;;;;;4.17;3.77;;;;;;;16.40;79.59;96735.93;1730240;82;25707;-88
2022/09/11 11:45:56;;;;;;;4.50;3.42;;;;;;;16.44;79.33;96742.47;1729980;82;26304;-89
2022/09/11 11:48:49;;;;;;;3.85;3.55;;;;;;;16.47;79.32;96744.67;1735373;82;27394;-88
2022/09/11 11:51:26;;;;;;;4.20;3.90;;;;;;;16.51;79.52;96747.16;1731668;81;25752;-84
2022/09/11 11:54:01;;;;;;;4.85;4.37;;;;;;;16.48;79.51;96750.41;1732921;82;25794;-85
2022/09/11 11:56:50;;;;;;;5.60;4.20;;;;;;;16.40;79.19;96757.72;1704238;82;25722;-84
2022/09/11 11:59:51;;;;;;;4.97;4.45;;;;;;;16.35;79.25;96756.32;1722985;82;25910;-90
2022/09/11 12:02:32;;;;;;;4.05;3.70;;;;;;;16.33;79.23;96759.84;1741277;80;28198;-85
2022/09/11 12:05:04;;;;;;;4.17;3.77;;;;;;;16.35;79.27;96759.04;1741132;81;25956;-85
2022/09/11 12:07:35;;;;;;;;;;;;;;;16.41;79.50;96760.73;1733453;82;25808;-91